Weather at Brussels Airport - EBBR


metar: EBBR 250720Z 09005KT 6000 NSC 13/11 Q1010 NOSIG

23 minuten geleden, om 07:20 UTC, de wind blies met windsnelheden van 2.6 meter per seconde(5.8 mijl per uur) vanuit Oost nabij Brussels airport. De temperatuur was 13 °C (55 °F), en de barometerdruk was 1,010 hPa (29.83 inHg). De relatieve vochtigheid was 87.6%. er was geen bewolking. De zichtbaarheid was 6.0 kilometer (3.7 mijl).

temperature image   windir image sky image 

Last 24 hour graph Brussels Airport - EBBR